DTNH

Enfidha - Hammamet International Airport

Enfidha, Tunisia
METAR DTNH 100630Z 30020KT CAVOK 16/08 Q1021
Observed Flight Rules
Dec-10 @ 06:30 UTC (50 minutes ago) Visual Flight Rules
Wind Visibility Clouds
300° at 20 knots 10,000+ meters
  • Clear skies
Temperatures Readings
Current 16°C / 61°F
Dewpoint 8°C / 46°F
Humidity 59%
Altimeter 30.15" Hg
Pressure 1021 hPa
Elevation 2
METAR DTNH 100630Z 30020KT CAVOK 16/08 Q1021
Observed Flight Rules
Dec-10 @ 06:30 UTC
(50 minutes ago)
VFR
Wind Visibility
300° at 20 knots 10,000+ meters
Clouds
  • Clear skies
Temperature Dewpoint
16°C / 61°F 8°C / 46°F
Humidity Altimeter Pressure
59% 30.15" Hg 1021 hPa